Time;durP1;ratioP1;P1;durP2;ratioP2;P2;SDS_P1;SDS_P2;PMS_P1;PMS_P2;Temp;Humidity;BMP_temperature;BMP_pressure;BME280_temperature;BME280_humidity;BME280_pressure;Samples;Min_cycle;Max_cycle;Signal;HPM_P1;HPM_P2
2021/10/28 00:13:08;;;;;;;15.60;13.85;;;;;;;;;;2092976;28;20171;-63
2021/10/28 00:14:08;;;;;;;18.17;15.05;;;;;;;;;;2094022;28;20175;-64
2021/10/28 00:15:16;;;;;;;20.85;14.75;;;;;;;;;;2098714;28;20166;-65
2021/10/28 00:16:23;;;;;;;20.38;15.00;;;;;;;;;;2098421;28;20179;-65
2021/10/28 00:17:42;;;;;;;17.73;15.10;;;;;;;;;;2089066;28;20171;-65
2021/10/28 00:18:45;;;;;;;19.52;14.68;;;;;;;;;;2083742;28;20167;-65
2021/10/28 00:19:45;;;;;;;18.52;15.07;;;;;;;;;;2096041;28;20171;-63
2021/10/28 00:20:46;;;;;;;16.95;14.98;;;;;;;;;;2088724;28;20172;-64
2021/10/28 00:21:46;;;;;;;16.75;14.95;;;;;;;;;;2079390;28;20274;-64
2021/10/28 00:22:47;;;;;;;19.00;14.93;;;;;;;;;;2089186;28;20230;-62
2021/10/28 00:23:50;;;;;;;18.75;14.45;;;;;;;;;;2096132;28;20282;-65
2021/10/28 00:24:50;;;;;;;19.73;14.73;;;;;;;;;;2087745;28;20219;-64
2021/10/28 00:25:50;;;;;;;17.13;13.52;;;;;;;;;;2090272;28;20206;-65
2021/10/28 00:26:51;;;;;;;19.55;14.10;;;;;;;;;;2095673;28;20175;-65
2021/10/28 00:27:52;;;;;;;16.30;13.45;;;;;;;;;;2098077;28;20228;-65
2021/10/28 00:28:57;;;;;;;19.83;14.73;;;;;;;;;;2098489;28;20220;-65
2021/10/28 00:29:58;;;;;;;17.20;13.25;;;;;;;;;;2097964;28;20173;-63
2021/10/28 00:30:58;;;;;;;17.70;14.85;;;;;;;;;;2091325;28;20186;-65
2021/10/28 00:31:59;;;;;;;16.45;14.40;;;;;;;;;;2098263;28;20177;-64
2021/10/28 00:32:59;;;;;;;18.95;14.88;;;;;;;;;;2088803;28;20175;-64
2021/10/28 00:33:59;;;;;;;16.65;14.13;;;;;;;;;;2089816;28;20168;-64
2021/10/28 00:35:00;;;;;;;18.85;13.82;;;;;;;;;;2089142;28;20167;-64
2021/10/28 00:36:01;;;;;;;18.00;14.00;;;;;;;;;;2088934;28;20632;-64
2021/10/28 00:37:01;;;;;;;18.35;15.02;;;;;;;;;;2092180;28;20171;-64
2021/10/28 00:38:02;;;;;;;16.58;13.45;;;;;;;;;;2097331;28;20178;-64
2021/10/28 00:39:03;;;;;;;20.05;14.70;;;;;;;;;;2096101;28;20176;-64
2021/10/28 00:40:06;;;;;;;15.57;13.80;;;;;;;;;;2098464;28;20223;-64
2021/10/28 00:41:06;;;;;;;18.05;13.60;;;;;;;;;;2097478;28;20167;-66
2021/10/28 00:42:07;;;;;;;14.65;13.10;;;;;;;;;;2098142;28;20206;-63
2021/10/28 00:43:08;;;;;;;19.05;13.50;;;;;;;;;;2095864;28;20555;-65
2021/10/28 00:44:10;;;;;;;21.15;14.02;;;;;;;;;;2098789;28;20191;-64
2021/10/28 00:45:12;;;;;;;17.20;13.15;;;;;;;;;;2095334;28;20211;-64
2021/10/28 00:46:12;;;;;;;16.63;13.77;;;;;;;;;;2089353;28;20636;-64
2021/10/28 00:47:13;;;;;;;16.35;12.80;;;;;;;;;;2080988;28;20172;-64
2021/10/28 00:48:15;;;;;;;18.83;13.40;;;;;;;;;;2089892;28;20549;-63
2021/10/28 00:49:15;;;;;;;18.13;13.57;;;;;;;;;;2097677;28;20181;-64
2021/10/28 00:50:16;;;;;;;16.73;14.02;;;;;;;;;;2097511;28;20575;-61
2021/10/28 00:51:20;;;;;;;20.70;14.60;;;;;;;;;;2093566;28;20411;-63
2021/10/28 00:52:20;;;;;;;17.65;14.57;;;;;;;;;;2092985;28;20194;-64
2021/10/28 00:53:22;;;;;;;17.65;15.80;;;;;;;;;;2098048;28;20817;-64
2021/10/28 00:54:23;;;;;;;22.00;15.75;;;;;;;;;;2094668;28;20166;-64
2021/10/28 00:55:24;;;;;;;19.52;14.90;;;;;;;;;;2098049;28;20178;-63
2021/10/28 00:56:27;;;;;;;19.45;14.93;;;;;;;;;;2097472;28;20183;-65
2021/10/28 00:57:29;;;;;;;21.40;15.45;;;;;;;;;;2098363;28;20246;-64
2021/10/28 00:58:30;;;;;;;20.63;15.38;;;;;;;;;;2094620;28;20595;-65
2021/10/28 00:59:30;;;;;;;17.98;14.18;;;;;;;;;;2089453;28;20270;-64
2021/10/28 01:00:31;;;;;;;19.98;14.40;;;;;;;;;;2085023;28;20612;-64
2021/10/28 01:01:31;;;;;;;17.70;14.73;;;;;;;;;;2096167;28;20175;-64
2021/10/28 01:02:31;;;;;;;18.15;15.00;;;;;;;;;;2097238;28;20286;-64
2021/10/28 01:03:33;;;;;;;19.45;15.05;;;;;;;;;;2097532;28;20240;-64
2021/10/28 01:04:33;;;;;;;21.73;14.93;;;;;;;;;;2095331;28;20294;-64
2021/10/28 01:05:34;;;;;;;15.75;13.82;;;;;;;;;;2097789;28;20174;-64
2021/10/28 01:06:35;;;;;;;18.23;14.30;;;;;;;;;;2083566;28;20180;-65
2021/10/28 01:07:35;;;;;;;19.30;14.32;;;;;;;;;;2088611;28;20176;-64
2021/10/28 01:08:39;;;;;;;15.95;13.55;;;;;;;;;;2090930;28;20170;-64
2021/10/28 01:09:40;;;;;;;17.25;14.00;;;;;;;;;;2097873;28;20207;-64
2021/10/28 01:10:40;;;;;;;16.80;14.55;;;;;;;;;;2090360;28;20174;-64
2021/10/28 01:11:41;;;;;;;22.40;14.27;;;;;;;;;;2096715;28;20175;-66
2021/10/28 01:12:41;;;;;;;18.02;14.65;;;;;;;;;;2096926;28;20268;-65
2021/10/28 01:13:42;;;;;;;21.17;15.10;;;;;;;;;;2088651;28;20175;-64
2021/10/28 01:14:45;;;;;;;16.95;15.02;;;;;;;;;;2089585;28;20191;-64
2021/10/28 01:15:45;;;;;;;19.67;14.27;;;;;;;;;;2096129;28;20175;-64
2021/10/28 01:16:45;;;;;;;17.33;14.48;;;;;;;;;;2097682;28;20182;-62
2021/10/28 01:17:46;;;;;;;19.92;13.77;;;;;;;;;;2095422;28;20650;-64
2021/10/28 01:18:46;;;;;;;17.75;13.70;;;;;;;;;;2096342;28;20179;-64
2021/10/28 01:19:48;;;;;;;19.15;13.43;;;;;;;;;;2095162;28;20241;-63
2021/10/28 01:20:50;;;;;;;18.70;14.02;;;;;;;;;;2089100;28;20163;-64
2021/10/28 01:21:50;;;;;;;20.90;14.65;;;;;;;;;;2094879;28;20179;-64
2021/10/28 01:22:50;;;;;;;18.88;13.73;;;;;;;;;;2097296;28;20194;-63
2021/10/28 01:23:51;;;;;;;18.00;12.85;;;;;;;;;;2093779;28;20743;-64
2021/10/28 01:24:51;;;;;;;19.88;14.77;;;;;;;;;;2088668;28;20211;-65
2021/10/28 01:25:55;;;;;;;16.27;13.88;;;;;;;;;;2084649;28;20164;-62
2021/10/28 01:27:03;;;;;;;17.73;13.18;;;;;;;;;;2093001;28;20172;-64
2021/10/28 01:28:04;;;;;;;16.90;14.15;;;;;;;;;;2097113;28;20159;-60
2021/10/28 01:29:04;;;;;;;17.80;12.88;;;;;;;;;;2097262;28;20198;-64
2021/10/28 01:30:05;;;;;;;14.70;12.95;;;;;;;;;;2096916;28;20249;-62
2021/10/28 01:31:08;;;;;;;16.23;13.52;;;;;;;;;;2092065;28;20172;-64
2021/10/28 01:32:09;;;;;;;16.60;12.95;;;;;;;;;;2096484;28;20659;-65
2021/10/28 01:33:10;;;;;;;17.75;12.52;;;;;;;;;;2092664;28;20171;-62
2021/10/28 01:34:12;;;;;;;18.20;12.90;;;;;;;;;;2097382;28;20190;-63
2021/10/28 01:35:13;;;;;;;17.90;13.80;;;;;;;;;;2093630;28;20714;-64
2021/10/28 01:36:13;;;;;;;16.75;12.95;;;;;;;;;;2088913;28;20175;-62
2021/10/28 01:37:15;;;;;;;18.55;12.52;;;;;;;;;;2084120;28;20570;-64
2021/10/28 01:38:16;;;;;;;18.80;12.43;;;;;;;;;;2096111;28;20224;-64
2021/10/28 01:39:17;;;;;;;16.33;12.18;;;;;;;;;;2087031;28;20650;-64
2021/10/28 01:40:17;;;;;;;16.85;12.57;;;;;;;;;;2087963;28;20214;-64
2021/10/28 01:41:18;;;;;;;16.00;13.27;;;;;;;;;;2094150;28;20166;-65
2021/10/28 01:42:20;;;;;;;16.52;13.98;;;;;;;;;;2097157;28;20548;-63
2021/10/28 01:43:40;;;;;;;19.42;13.82;;;;;;;;;;2087373;28;20295;-59
2021/10/28 01:44:41;;;;;;;17.13;14.10;;;;;;;;;;2084119;28;20615;-58
2021/10/28 01:45:41;;;;;;;20.75;15.25;;;;;;;;;;2088535;28;20620;-58
2021/10/28 01:46:41;;;;;;;19.33;14.50;;;;;;;;;;2089961;28;20171;-60
2021/10/28 01:47:42;;;;;;;24.33;15.27;;;;;;;;;;2089782;28;20198;-58
2021/10/28 01:48:43;;;;;;;22.45;14.43;;;;;;;;;;2090548;28;20317;-60
2021/10/28 01:49:44;;;;;;;22.23;14.27;;;;;;;;;;2091233;28;20176;-59
2021/10/28 01:50:44;;;;;;;17.25;14.10;;;;;;;;;;2083091;28;20648;-58
2021/10/28 01:51:45;;;;;;;17.58;13.90;;;;;;;;;;2089565;28;20179;-59
2021/10/28 01:52:45;;;;;;;18.42;13.70;;;;;;;;;;2089822;28;20195;-57
2021/10/28 01:53:46;;;;;;;15.68;12.63;;;;;;;;;;2082585;28;20180;-57
2021/10/28 01:54:46;;;;;;;16.38;12.98;;;;;;;;;;2090779;28;20671;-59
2021/10/28 01:55:47;;;;;;;18.45;12.90;;;;;;;;;;2089884;28;20196;-60
2021/10/28 01:56:47;;;;;;;18.92;12.40;;;;;;;;;;2091034;28;20639;-60
2021/10/28 01:57:48;;;;;;;18.00;13.30;;;;;;;;;;2088588;28;20237;-58
2021/10/28 01:58:51;;;;;;;18.55;13.18;;;;;;;;;;2088417;28;20325;-56
2021/10/28 01:59:51;;;;;;;15.88;13.38;;;;;;;;;;2087982;28;20184;-58
2021/10/28 02:00:52;;;;;;;17.00;13.25;;;;;;;;;;2089306;28;20523;-61
2021/10/28 02:01:52;;;;;;;17.60;13.45;;;;;;;;;;2086217;28;20195;-58
2021/10/28 02:02:53;;;;;;;16.25;13.48;;;;;;;;;;2087019;28;20211;-58
2021/10/28 02:03:53;;;;;;;18.02;13.65;;;;;;;;;;2087827;28;20183;-59
2021/10/28 02:04:53;;;;;;;16.85;14.15;;;;;;;;;;2099006;28;20732;-57
2021/10/28 02:05:55;;;;;;;16.15;13.55;;;;;;;;;;2092650;28;20206;-58
2021/10/28 02:06:55;;;;;;;17.98;13.05;;;;;;;;;;2098812;28;20227;-60
2021/10/28 02:07:55;;;;;;;17.70;13.73;;;;;;;;;;2089674;28;20645;-59
2021/10/28 02:08:56;;;;;;;17.13;13.40;;;;;;;;;;2092280;28;20203;-60
2021/10/28 02:09:56;;;;;;;21.10;14.07;;;;;;;;;;2093320;28;20172;-59
2021/10/28 02:10:57;;;;;;;17.38;13.90;;;;;;;;;;2093871;28;20187;-60
2021/10/28 02:12:00;;;;;;;21.38;14.23;;;;;;;;;;2086028;28;20443;-57
2021/10/28 02:13:01;;;;;;;15.00;13.30;;;;;;;;;;2085735;28;20208;-59
2021/10/28 02:14:01;;;;;;;17.77;13.35;;;;;;;;;;2086730;28;20183;-59
2021/10/28 02:15:03;;;;;;;17.63;13.45;;;;;;;;;;2089508;28;20167;-59
2021/10/28 02:16:03;;;;;;;18.17;14.52;;;;;;;;;;2083898;28;20226;-54
2021/10/28 02:17:03;;;;;;;19.33;14.52;;;;;;;;;;2088821;28;20222;-57
2021/10/28 02:18:04;;;;;;;18.50;13.88;;;;;;;;;;2091212;28;20250;-59
2021/10/28 02:19:05;;;;;;;20.00;14.13;;;;;;;;;;2089478;28;20179;-58
2021/10/28 02:20:06;;;;;;;18.55;14.25;;;;;;;;;;2091425;28;20178;-59
2021/10/28 02:21:07;;;;;;;18.75;14.32;;;;;;;;;;2090404;28;20172;-59
2021/10/28 02:22:07;;;;;;;19.83;14.48;;;;;;;;;;2085306;28;20168;-59
2021/10/28 02:23:08;;;;;;;18.42;14.38;;;;;;;;;;2091837;28;20191;-59
2021/10/28 02:24:09;;;;;;;17.77;14.60;;;;;;;;;;2090203;28;20204;-58
2021/10/28 02:25:11;;;;;;;20.83;15.45;;;;;;;;;;2085613;28;20207;-58
2021/10/28 02:26:12;;;;;;;26.58;17.27;;;;;;;;;;2090393;28;20171;-60
2021/10/28 02:27:12;;;;;;;24.80;18.45;;;;;;;;;;2085655;28;20179;-59
2021/10/28 02:28:12;;;;;;;24.25;17.00;;;;;;;;;;2088426;28;20172;-56
2021/10/28 02:29:13;;;;;;;22.30;15.43;;;;;;;;;;2090116;28;20182;-56
2021/10/28 02:30:14;;;;;;;20.50;16.20;;;;;;;;;;2088877;28;20206;-58
2021/10/28 02:31:14;;;;;;;21.67;15.77;;;;;;;;;;2080476;28;20174;-57
2021/10/28 02:32:15;;;;;;;20.75;16.20;;;;;;;;;;2089137;28;20186;-57
2021/10/28 02:33:16;;;;;;;23.20;16.13;;;;;;;;;;2085945;28;20209;-58
2021/10/28 02:34:16;;;;;;;22.10;15.88;;;;;;;;;;2089455;28;20234;-58
2021/10/28 02:35:16;;;;;;;22.13;15.70;;;;;;;;;;2089519;28;20178;-59
2021/10/28 02:36:20;;;;;;;20.13;15.15;;;;;;;;;;2089617;28;20174;-56
2021/10/28 02:37:21;;;;;;;18.55;14.60;;;;;;;;;;2089358;28;20593;-58
2021/10/28 02:38:21;;;;;;;23.13;14.90;;;;;;;;;;2088361;28;20176;-58
2021/10/28 02:39:21;;;;;;;21.70;14.85;;;;;;;;;;2089928;28;20164;-56
2021/10/28 02:40:22;;;;;;;19.08;15.57;;;;;;;;;;2086165;28;20179;-58
2021/10/28 02:41:22;;;;;;;19.80;15.63;;;;;;;;;;2088824;28;20167;-57
2021/10/28 02:42:22;;;;;;;22.27;15.88;;;;;;;;;;2088703;28;20279;-58
2021/10/28 02:43:24;;;;;;;25.05;15.95;;;;;;;;;;2087832;28;20285;-57
2021/10/28 02:44:24;;;;;;;20.80;15.13;;;;;;;;;;2086078;28;20170;-56
2021/10/28 02:45:24;;;;;;;21.02;15.93;;;;;;;;;;2089495;28;20183;-61
2021/10/28 02:46:25;;;;;;;23.92;16.27;;;;;;;;;;2088898;28;20218;-58
2021/10/28 02:47:25;;;;;;;20.95;15.60;;;;;;;;;;2089389;28;20195;-57
2021/10/28 02:48:25;;;;;;;21.65;14.63;;;;;;;;;;2088507;28;20180;-58
2021/10/28 02:49:26;;;;;;;23.85;16.00;;;;;;;;;;2089119;28;20186;-54
2021/10/28 02:50:26;;;;;;;25.70;17.50;;;;;;;;;;2089750;28;20247;-57
2021/10/28 02:51:27;;;;;;;22.08;15.93;;;;;;;;;;2089585;28;20535;-58
2021/10/28 02:52:28;;;;;;;23.40;16.30;;;;;;;;;;2089864;28;20172;-59
2021/10/28 02:53:28;;;;;;;25.65;15.55;;;;;;;;;;2089809;28;20187;-57
2021/10/28 02:54:29;;;;;;;24.00;15.93;;;;;;;;;;2089613;28;20242;-57
2021/10/28 02:55:30;;;;;;;20.52;16.27;;;;;;;;;;2089710;28;20191;-58
2021/10/28 02:56:30;;;;;;;28.83;17.45;;;;;;;;;;2089290;28;20248;-56
2021/10/28 02:57:30;;;;;;;22.92;17.27;;;;;;;;;;2087134;28;20253;-58
2021/10/28 02:58:31;;;;;;;25.83;16.98;;;;;;;;;;2095469;28;20163;-57
2021/10/28 02:59:31;;;;;;;20.83;15.77;;;;;;;;;;2091886;28;20191;-53
2021/10/28 03:00:31;;;;;;;20.55;15.13;;;;;;;;;;2092418;28;20543;-54
2021/10/28 03:01:31;;;;;;;18.75;16.00;;;;;;;;;;2089509;28;20635;-54
2021/10/28 03:02:32;;;;;;;27.05;16.73;;;;;;;;;;2094939;28;20799;-56
2021/10/28 03:03:32;;;;;;;20.73;15.27;;;;;;;;;;2090872;28;20595;-55
2021/10/28 03:04:32;;;;;;;24.98;16.88;;;;;;;;;;2089455;28;20176;-58
2021/10/28 03:05:33;;;;;;;23.67;16.90;;;;;;;;;;2088335;28;20677;-57
2021/10/28 03:06:37;;;;;;;25.02;16.23;;;;;;;;;;2087628;28;20184;-56
2021/10/28 03:07:38;;;;;;;23.55;17.00;;;;;;;;;;2089747;28;20176;-57
2021/10/28 03:08:39;;;;;;;29.02;17.80;;;;;;;;;;2095764;28;20726;-54
2021/10/28 03:09:39;;;;;;;23.33;16.77;;;;;;;;;;2087046;28;20165;-57
2021/10/28 03:10:42;;;;;;;24.15;16.00;;;;;;;;;;2089849;28;20176;-57
2021/10/28 03:11:43;;;;;;;25.50;16.05;;;;;;;;;;2089759;28;20239;-60
2021/10/28 03:12:45;;;;;;;23.65;16.33;;;;;;;;;;2094182;28;20182;-58
2021/10/28 03:13:46;;;;;;;26.15;16.00;;;;;;;;;;2088718;28;20198;-59
2021/10/28 03:14:56;;;;;;;24.15;16.58;;;;;;;;;;2089476;28;20203;-55
2021/10/28 03:15:57;;;;;;;28.35;16.52;;;;;;;;;;2081994;28;20176;-56
2021/10/28 03:25:35;;;;;;;22.33;15.85;;;;;;;;;;2084076;28;20176;-54
2021/10/28 03:25:47;;;;;;;23.23;15.45;;;;;;;;;;2063028;28;20858;-57
2021/10/28 03:26:50;;;;;;;22.23;15.50;;;;;;;;;;2087906;28;20164;-56
2021/10/28 03:27:50;;;;;;;20.63;15.70;;;;;;;;;;2088550;28;20187;-54
2021/10/28 03:28:50;;;;;;;24.55;16.65;;;;;;;;;;2095562;28;20178;-57
2021/10/28 03:29:50;;;;;;;31.35;21.83;;;;;;;;;;2088521;28;20180;-57
2021/10/28 03:30:51;;;;;;;24.60;17.58;;;;;;;;;;2082163;28;20207;-55
2021/10/28 03:31:51;;;;;;;24.25;16.85;;;;;;;;;;2081693;28;20180;-57
2021/10/28 03:32:51;;;;;;;25.10;19.42;;;;;;;;;;2081542;28;20210;-57
2021/10/28 03:33:51;;;;;;;28.92;20.00;;;;;;;;;;2089410;28;20297;-59
2021/10/28 03:34:52;;;;;;;29.85;19.80;;;;;;;;;;2089034;28;20672;-57
2021/10/28 03:35:53;;;;;;;26.27;18.27;;;;;;;;;;2087997;28;20216;-57
2021/10/28 03:38:33;;;;;;;27.52;19.60;;;;;;;;;;2063169;28;20267;-54
2021/10/28 03:39:52;;;;;;;26.05;17.58;;;;;;;;;;2083034;28;20183;-55
2021/10/28 03:48:56;;;;;;;25.38;17.05;;;;;;;;;;2086716;28;20172;-60
2021/10/28 03:50:32;;;;;;;27.20;16.40;;;;;;;;;;2080364;28;20245;-59
2021/10/28 04:00:31;;;;;;;25.65;16.55;;;;;;;;;;2085841;28;20282;-59
2021/10/28 04:17:12;;;;;;;24.00;16.63;;;;;;;;;;2090101;28;20184;-57
2021/10/28 04:20:48;;;;;;;31.30;18.85;;;;;;;;;;2094885;28;20163;-59
2021/10/28 04:22:08;;;;;;;24.38;16.80;;;;;;;;;;2089352;28;20248;-59
2021/10/28 04:29:44;;;;;;;28.98;18.48;;;;;;;;;;2095571;28;20296;-58
2021/10/28 04:30:44;;;;;;;28.95;20.05;;;;;;;;;;2095140;28;20328;-57
2021/10/28 04:31:44;;;;;;;27.08;18.60;;;;;;;;;;2093331;28;20174;-58
2021/10/28 04:32:45;;;;;;;28.33;19.17;;;;;;;;;;2086541;28;20554;-55
2021/10/28 04:33:45;;;;;;;32.63;18.87;;;;;;;;;;2089625;28;20221;-55
2021/10/28 04:34:46;;;;;;;30.20;20.05;;;;;;;;;;2090031;28;20788;-53
2021/10/28 04:35:46;;;;;;;30.17;20.15;;;;;;;;;;2088918;28;20564;-55
2021/10/28 04:36:47;;;;;;;33.22;21.20;;;;;;;;;;2089577;28;20730;-56
2021/10/28 04:37:47;;;;;;;35.67;20.85;;;;;;;;;;2089166;28;20741;-58
2021/10/28 04:38:47;;;;;;;30.40;20.27;;;;;;;;;;2089294;28;20190;-54
2021/10/28 04:39:48;;;;;;;33.67;21.35;;;;;;;;;;2090542;28;20191;-58
2021/10/28 04:40:48;;;;;;;33.13;20.27;;;;;;;;;;2090409;28;20199;-57
2021/10/28 04:41:48;;;;;;;31.33;21.02;;;;;;;;;;2090338;28;20194;-57
2021/10/28 04:42:48;;;;;;;33.00;19.40;;;;;;;;;;2090116;28;20195;-57
2021/10/28 04:43:49;;;;;;;28.80;19.55;;;;;;;;;;2090087;28;20168;-59
2021/10/28 04:44:49;;;;;;;33.45;20.30;;;;;;;;;;2090784;28;20187;-56
2021/10/28 04:45:49;;;;;;;35.33;21.88;;;;;;;;;;2090621;28;20171;-57
2021/10/28 04:46:49;;;;;;;33.97;22.10;;;;;;;;;;2089998;28;20667;-56
2021/10/28 04:47:50;;;;;;;34.15;21.45;;;;;;;;;;2090155;28;20175;-57
2021/10/28 04:48:50;;;;;;;32.95;20.25;;;;;;;;;;2090505;28;20233;-58
2021/10/28 04:49:50;;;;;;;33.33;22.20;;;;;;;;;;2091038;28;20168;-57
2021/10/28 04:50:50;;;;;;;31.70;21.00;;;;;;;;;;2090396;28;20187;-54
2021/10/28 04:51:52;;;;;;;35.38;22.60;;;;;;;;;;2090807;28;20183;-55
2021/10/28 04:52:52;;;;;;;37.03;22.27;;;;;;;;;;2090637;28;20179;-60
2021/10/28 04:53:53;;;;;;;36.30;23.65;;;;;;;;;;2090519;28;20802;-56
2021/10/28 04:54:53;;;;;;;37.83;23.63;;;;;;;;;;2090561;28;20172;-56
2021/10/28 04:55:53;;;;;;;40.05;24.08;;;;;;;;;;2090536;28;20183;-55
2021/10/28 04:56:53;;;;;;;37.25;23.55;;;;;;;;;;2089927;28;20675;-53
2021/10/28 04:57:53;;;;;;;39.07;23.20;;;;;;;;;;2090106;28;20172;-57
2021/10/28 04:58:54;;;;;;;42.58;24.15;;;;;;;;;;2089577;28;20192;-57
2021/10/28 04:59:54;;;;;;;34.15;23.13;;;;;;;;;;2090560;28;20183;-56
2021/10/28 05:00:54;;;;;;;32.85;21.65;;;;;;;;;;2090157;28;20163;-59
2021/10/28 05:01:54;;;;;;;33.67;22.05;;;;;;;;;;2090424;28;20228;-58
2021/10/28 05:02:55;;;;;;;38.75;22.02;;;;;;;;;;2090438;28;20675;-59
2021/10/28 05:03:55;;;;;;;37.92;21.58;;;;;;;;;;2090055;28;20632;-55
2021/10/28 05:04:55;;;;;;;34.75;22.05;;;;;;;;;;2090102;28;20291;-58
2021/10/28 05:05:56;;;;;;;35.17;22.02;;;;;;;;;;2090509;28;20167;-56
2021/10/28 05:06:56;;;;;;;35.47;22.85;;;;;;;;;;2084352;28;20184;-56
2021/10/28 05:07:57;;;;;;;33.55;22.77;;;;;;;;;;2090347;28;20228;-57
2021/10/28 05:08:57;;;;;;;35.55;22.80;;;;;;;;;;2089253;28;20190;-60
2021/10/28 05:09:57;;;;;;;32.05;21.98;;;;;;;;;;2089637;28;20187;-56
2021/10/28 05:10:57;;;;;;;35.95;23.27;;;;;;;;;;2082497;28;20164;-59
2021/10/28 05:11:58;;;;;;;33.03;22.58;;;;;;;;;;2088543;28;20221;-55
2021/10/28 05:12:58;;;;;;;35.05;22.52;;;;;;;;;;2089860;28;20207;-56
2021/10/28 05:13:59;;;;;;;35.25;23.83;;;;;;;;;;2089989;28;20179;-57
2021/10/28 05:14:59;;;;;;;39.10;22.95;;;;;;;;;;2085603;28;20179;-58
2021/10/28 05:15:59;;;;;;;35.75;23.00;;;;;;;;;;2080500;28;20545;-58
2021/10/28 05:17:00;;;;;;;32.72;21.95;;;;;;;;;;2081877;28;20215;-58
2021/10/28 05:18:00;;;;;;;29.95;20.65;;;;;;;;;;2085377;28;20258;-58
2021/10/28 05:19:02;;;;;;;31.55;20.52;;;;;;;;;;2080754;28;20618;-59
2021/10/28 05:20:03;;;;;;;36.22;21.67;;;;;;;;;;2080855;28;20197;-57
2021/10/28 05:21:03;;;;;;;35.38;21.98;;;;;;;;;;2084669;28;20191;-58
2021/10/28 05:22:04;;;;;;;38.90;22.52;;;;;;;;;;2089387;28;20184;-56
2021/10/28 05:23:05;;;;;;;31.13;20.85;;;;;;;;;;2089335;28;20210;-55
2021/10/28 05:24:05;;;;;;;31.23;20.80;;;;;;;;;;2084782;28;20184;-57
2021/10/28 05:25:05;;;;;;;27.20;20.17;;;;;;;;;;2090139;28;20192;-58
2021/10/28 05:26:07;;;;;;;36.60;22.40;;;;;;;;;;2088855;28;20714;-59
2021/10/28 05:27:07;;;;;;;34.83;20.70;;;;;;;;;;2083380;28;20200;-56
2021/10/28 05:28:07;;;;;;;33.92;22.00;;;;;;;;;;2089480;28;20171;-58
2021/10/28 05:29:07;;;;;;;33.38;20.67;;;;;;;;;;2088936;28;20206;-55
2021/10/28 05:30:08;;;;;;;34.38;20.40;;;;;;;;;;2084481;28;20652;-57
2021/10/28 05:31:08;;;;;;;29.17;20.05;;;;;;;;;;2088937;28;20271;-56
2021/10/28 05:32:08;;;;;;;30.67;20.80;;;;;;;;;;2088753;28;20251;-56
2021/10/28 05:33:09;;;;;;;29.92;19.75;;;;;;;;;;2084781;28;20206;-59
2021/10/28 05:34:09;;;;;;;30.25;20.05;;;;;;;;;;2090604;28;21081;-57
2021/10/28 05:35:09;;;;;;;31.42;21.33;;;;;;;;;;2094144;28;20182;-59
2021/10/28 05:36:10;;;;;;;33.60;21.65;;;;;;;;;;2087769;28;20643;-59
2021/10/28 05:37:10;;;;;;;33.92;21.60;;;;;;;;;;2093656;28;20183;-59
2021/10/28 05:38:10;;;;;;;35.40;21.05;;;;;;;;;;2088414;28;20168;-56
2021/10/28 05:39:11;;;;;;;35.55;21.73;;;;;;;;;;2090102;28;20170;-58
2021/10/28 05:40:11;;;;;;;37.05;22.42;;;;;;;;;;2089818;28;20205;-57
2021/10/28 05:41:11;;;;;;;29.33;20.27;;;;;;;;;;2086915;28;20222;-60
2021/10/28 05:42:12;;;;;;;34.42;22.08;;;;;;;;;;2088014;28;20163;-58
2021/10/28 05:43:12;;;;;;;33.15;20.88;;;;;;;;;;2089594;28;20211;-57
2021/10/28 05:44:13;;;;;;;31.35;20.77;;;;;;;;;;2092645;28;20554;-58
2021/10/28 05:45:14;;;;;;;32.80;21.52;;;;;;;;;;2093962;28;20294;-58
2021/10/28 05:46:14;;;;;;;35.28;21.20;;;;;;;;;;2090057;28;20188;-58
2021/10/28 05:47:14;;;;;;;34.63;22.67;;;;;;;;;;2087825;28;20186;-58
2021/10/28 05:48:14;;;;;;;35.08;22.83;;;;;;;;;;2089036;28;20716;-57
2021/10/28 05:49:15;;;;;;;31.45;21.67;;;;;;;;;;2089088;28;20241;-59
2021/10/28 05:50:17;;;;;;;35.92;22.15;;;;;;;;;;2087846;28;20658;-55
2021/10/28 05:51:18;;;;;;;34.78;22.08;;;;;;;;;;2089560;28;20182;-57
2021/10/28 05:52:18;;;;;;;31.00;21.67;;;;;;;;;;2093272;28;20175;-56
2021/10/28 05:53:19;;;;;;;33.53;21.92;;;;;;;;;;2073153;28;20346;-58
2021/10/28 05:54:19;;;;;;;31.40;21.90;;;;;;;;;;2064733;28;20252;-58
2021/10/28 05:55:21;;;;;;;37.58;22.35;;;;;;;;;;2086073;28;20206;-57
2021/10/28 05:56:21;;;;;;;43.55;25.27;;;;;;;;;;2087441;28;20237;-56
2021/10/28 05:57:22;;;;;;;38.22;23.52;;;;;;;;;;2089581;28;20590;-56
2021/10/28 05:58:22;;;;;;;39.55;21.58;;;;;;;;;;2088909;28;20675;-56
2021/10/28 05:59:23;;;;;;;32.75;21.73;;;;;;;;;;2087253;28;20202;-57
2021/10/28 06:00:24;;;;;;;34.53;22.20;;;;;;;;;;2089549;28;20749;-55
2021/10/28 06:01:25;;;;;;;30.67;19.98;;;;;;;;;;2089712;28;20279;-55
2021/10/28 06:02:25;;;;;;;32.22;21.77;;;;;;;;;;2086452;28;20176;-55
2021/10/28 06:03:25;;;;;;;31.95;21.02;;;;;;;;;;2088053;28;20286;-58
2021/10/28 06:04:26;;;;;;;34.77;22.00;;;;;;;;;;2088502;28;20191;-57
2021/10/28 06:05:26;;;;;;;30.25;20.98;;;;;;;;;;2088324;28;20183;-57
2021/10/28 06:06:27;;;;;;;32.40;21.08;;;;;;;;;;2096103;28;20182;-58
2021/10/28 06:07:27;;;;;;;31.35;21.02;;;;;;;;;;2088026;28;20267;-58
2021/10/28 06:08:27;;;;;;;34.63;20.77;;;;;;;;;;2088125;28;20224;-57
2021/10/28 06:09:28;;;;;;;31.83;21.15;;;;;;;;;;2088903;28;20229;-59
2021/10/28 06:10:28;;;;;;;30.98;21.60;;;;;;;;;;2087961;28;20259;-58
2021/10/28 06:11:28;;;;;;;29.85;21.40;;;;;;;;;;2089096;28;20174;-56
2021/10/28 06:12:34;;;;;;;29.98;21.95;;;;;;;;;;2088945;28;20643;-57
2021/10/28 06:13:42;;;;;;;31.70;20.58;;;;;;;;;;2085864;28;20180;-57
2021/10/28 06:14:42;;;;;;;29.88;20.48;;;;;;;;;;2086979;28;20230;-57
2021/10/28 06:15:43;;;;;;;34.25;22.98;;;;;;;;;;2079494;28;20180;-59
2021/10/28 06:16:43;;;;;;;30.50;20.50;;;;;;;;;;2088432;28;20215;-54
2021/10/28 06:18:49;;;;;;;36.78;22.00;;;;;;;;;;2087927;28;20660;-56
2021/10/28 06:19:14;;;;;;;30.30;20.05;;;;;;;;;;2070848;28;20254;-60
2021/10/28 06:20:14;;;;;;;32.42;21.70;;;;;;;;;;2091484;28;20171;-58
2021/10/28 06:21:16;;;;;;;33.47;22.08;;;;;;;;;;2087226;28;20234;-58
2021/10/28 06:22:17;;;;;;;36.45;22.80;;;;;;;;;;2088725;28;20179;-58
2021/10/28 06:23:17;;;;;;;34.38;23.23;;;;;;;;;;2090775;28;20222;-58
2021/10/28 06:24:17;;;;;;;32.75;21.77;;;;;;;;;;2089232;28;20586;-55
2021/10/28 06:25:18;;;;;;;36.80;23.08;;;;;;;;;;2088143;28;20314;-59
2021/10/28 06:26:18;;;;;;;33.67;21.75;;;;;;;;;;2087994;28;20164;-54
2021/10/28 06:27:19;;;;;;;33.65;21.33;;;;;;;;;;2087674;28;20237;-55
2021/10/28 06:28:27;;;;;;;37.22;23.83;;;;;;;;;;2086332;28;20206;-55
2021/10/28 06:29:52;;;;;;;36.20;24.20;;;;;;;;;;2088248;28;20529;-56
2021/10/28 06:30:52;;;;;;;39.25;23.25;;;;;;;;;;2085713;28;20201;-61
2021/10/28 06:31:53;;;;;;;41.73;25.37;;;;;;;;;;2087978;28;20171;-55
2021/10/28 06:33:02;;;;;;;46.33;28.80;;;;;;;;;;2088438;28;20322;-55
2021/10/28 06:34:07;;;;;;;36.53;24.13;;;;;;;;;;2086726;28;20208;-56
2021/10/28 06:35:08;;;;;;;40.95;26.20;;;;;;;;;;2088608;28;20524;-56
2021/10/28 06:36:08;;;;;;;39.28;26.45;;;;;;;;;;2089276;28;20215;-56
2021/10/28 06:37:09;;;;;;;38.47;24.60;;;;;;;;;;2088729;28;20194;-58
2021/10/28 06:38:10;;;;;;;40.27;25.53;;;;;;;;;;2090265;28;20197;-55
2021/10/28 06:39:10;;;;;;;43.28;26.40;;;;;;;;;;2089691;28;20179;-58
2021/10/28 06:40:11;;;;;;;42.22;24.23;;;;;;;;;;2088522;28;20265;-55
2021/10/28 06:41:12;;;;;;;38.70;24.00;;;;;;;;;;2088536;28;20164;-56
2021/10/28 06:42:13;;;;;;;42.13;26.48;;;;;;;;;;2088694;28;20183;-58
2021/10/28 06:43:16;;;;;;;38.13;24.67;;;;;;;;;;2088456;28;20713;-58
2021/10/28 06:44:16;;;;;;;35.03;23.20;;;;;;;;;;2088138;28;20179;-58
2021/10/28 06:45:17;;;;;;;33.53;22.02;;;;;;;;;;2088945;28;20239;-57
2021/10/28 06:46:17;;;;;;;43.00;26.67;;;;;;;;;;2089459;28;20170;-57
2021/10/28 06:47:18;;;;;;;34.15;23.33;;;;;;;;;;2089101;28;20171;-57
2021/10/28 06:48:18;;;;;;;36.53;22.27;;;;;;;;;;2088792;28;20211;-56
2021/10/28 06:49:19;;;;;;;35.28;23.75;;;;;;;;;;2088348;28;20266;-57
2021/10/28 06:50:20;;;;;;;31.80;22.67;;;;;;;;;;2079609;28;20172;-54
2021/10/28 06:51:22;;;;;;;42.53;26.10;;;;;;;;;;2080220;28;20184;-57
2021/10/28 06:52:22;;;;;;;37.55;24.42;;;;;;;;;;2088246;28;20172;-56
2021/10/28 06:53:24;;;;;;;35.15;22.88;;;;;;;;;;2088618;28;20250;-58
2021/10/28 06:54:28;;;;;;;34.53;22.73;;;;;;;;;;2088977;28;20180;-55
2021/10/28 06:55:37;;;;;;;41.08;25.13;;;;;;;;;;2088055;28;20211;-58
2021/10/28 07:02:56;;;;;;;29.52;20.63;;;;;;;;;;2088556;28;20286;-55
2021/10/28 07:03:56;;;;;;;35.23;21.90;;;;;;;;;;2087943;28;20179;-57
2021/10/28 07:04:59;;;;;;;31.98;20.88;;;;;;;;;;2087240;28;20238;-58
2021/10/28 07:06:11;;;;;;;36.60;22.35;;;;;;;;;;2087937;28;20179;-58
2021/10/28 07:07:12;;;;;;;36.40;22.05;;;;;;;;;;2088943;28;20254;-58